Time;durP1;ratioP1;P1;durP2;ratioP2;P2;SDS_P1;SDS_P2;PMS_P1;PMS_P2;Temp;Humidity;BMP_temperature;BMP_pressure;BME280_temperature;BME280_humidity;BME280_pressure;Samples;Min_cycle;Max_cycle;Signal;HPM_P1;HPM_P2
2022/04/12 00:01:25;;;;;;;1.13;1.00;;;;;;;;;;5110272;28;20586;-57
2022/04/12 00:03:52;;;;;;;1.15;0.90;;;;;;;;;;5100611;28;20203;-56
2022/04/12 00:06:20;;;;;;;1.08;1.00;;;;;;;;;;5100450;28;20200;-56
2022/04/12 00:08:47;;;;;;;1.17;1.08;;;;;;;;;;5100415;28;20204;-56
2022/04/12 00:11:15;;;;;;;1.10;1.00;;;;;;;;;;5100558;28;20211;-56
2022/04/12 00:13:44;;;;;;;1.23;1.13;;;;;;;;;;5100388;28;20207;-56
2022/04/12 00:16:11;;;;;;;1.08;1.00;;;;;;;;;;5100431;28;20567;-56
2022/04/12 00:21:24;;;;;;;0.90;0.90;;;;;;;;;;5099656;28;20534;-56
2022/04/12 00:23:51;;;;;;;0.90;0.90;;;;;;;;;;5100247;28;20648;-58
2022/04/12 00:26:19;;;;;;;1.00;0.88;;;;;;;;;;5099780;28;20214;-58
2022/04/12 00:28:47;;;;;;;1.30;1.20;;;;;;;;;;5100162;28;20575;-57
2022/04/12 00:31:15;;;;;;;1.20;1.10;;;;;;;;;;5099887;28;20200;-57
2022/04/12 00:33:42;;;;;;;1.20;1.10;;;;;;;;;;5103445;28;20199;-57
2022/04/12 00:36:09;;;;;;;1.30;1.20;;;;;;;;;;5120405;28;20633;-58
2022/04/12 00:38:38;;;;;;;0.90;0.90;;;;;;;;;;5107499;28;20224;-58
2022/04/12 00:41:05;;;;;;;1.13;1.02;;;;;;;;;;5109915;28;20645;-57
2022/04/12 00:43:35;;;;;;;1.30;1.20;;;;;;;;;;5119499;28;20221;-57
2022/04/12 00:46:04;;;;;;;1.20;1.10;;;;;;;;;;5119896;28;20249;-58
2022/04/12 00:48:32;;;;;;;1.05;0.95;;;;;;;;;;5102109;28;20207;-57
2022/04/12 00:50:59;;;;;;;1.02;0.93;;;;;;;;;;5099508;28;20215;-57
2022/04/12 00:53:27;;;;;;;1.10;1.00;;;;;;;;;;5109642;28;20199;-58
2022/04/12 00:55:54;;;;;;;0.90;0.90;;;;;;;;;;5119969;28;20202;-56
2022/04/12 00:58:22;;;;;;;1.00;0.90;;;;;;;;;;5119457;28;20682;-58
2022/04/12 01:00:50;;;;;;;1.20;1.10;;;;;;;;;;5120085;27;20218;-55
2022/04/12 01:03:19;;;;;;;1.02;0.93;;;;;;;;;;5119192;28;20563;-57
2022/04/12 01:05:46;;;;;;;1.40;1.30;;;;;;;;;;5099695;28;20286;-56
2022/04/12 01:08:14;;;;;;;1.00;1.00;;;;;;;;;;5108753;28;20198;-56
2022/04/12 01:10:43;;;;;;;1.23;1.13;;;;;;;;;;5119550;28;20199;-56
2022/04/12 01:13:11;;;;;;;1.30;1.20;;;;;;;;;;5119827;28;20594;-56
2022/04/12 01:15:38;;;;;;;1.17;1.08;;;;;;;;;;5101936;28;20575;-56
2022/04/12 01:18:05;;;;;;;1.20;1.02;;;;;;;;;;5118979;28;20223;-56
2022/04/12 01:20:34;;;;;;;0.82;0.82;;;;;;;;;;5118598;28;20381;-56
2022/04/12 01:23:07;;;;;;;1.00;1.00;;;;;;;;;;5114686;28;20460;-56
2022/04/12 01:25:37;;;;;;;1.13;1.02;;;;;;;;;;5100852;28;20200;-56
2022/04/12 01:28:04;;;;;;;1.20;1.10;;;;;;;;;;5098930;28;20200;-56
2022/04/12 01:30:32;;;;;;;1.20;1.10;;;;;;;;;;5098678;28;20199;-56
2022/04/12 01:32:59;;;;;;;1.20;1.10;;;;;;;;;;5098862;28;20218;-56
2022/04/12 01:35:27;;;;;;;1.20;1.10;;;;;;;;;;5098702;28;20493;-56
2022/04/12 01:37:54;;;;;;;1.20;1.10;;;;;;;;;;5098797;28;20265;-56
2022/04/12 01:40:22;;;;;;;1.30;1.20;;;;;;;;;;5098505;28;20214;-56
2022/04/12 01:42:52;;;;;;;1.10;1.00;;;;;;;;;;5098656;28;20214;-56
2022/04/12 01:45:21;;;;;;;1.20;0.90;;;;;;;;;;5114841;28;20223;-56
2022/04/12 01:47:48;;;;;;;1.13;1.02;;;;;;;;;;5118035;28;20199;-57
2022/04/12 01:50:16;;;;;;;1.30;1.20;;;;;;;;;;5118794;28;20213;-56
2022/04/12 01:52:43;;;;;;;1.08;1.00;;;;;;;;;;5118183;27;20199;-56
2022/04/12 01:55:11;;;;;;;1.25;1.15;;;;;;;;;;5104313;28;20483;-56
2022/04/12 01:57:39;;;;;;;1.17;1.08;;;;;;;;;;5098166;28;20218;-56
2022/04/12 02:00:09;;;;;;;1.20;1.10;;;;;;;;;;5109353;28;20223;-56
2022/04/12 02:02:36;;;;;;;1.00;1.00;;;;;;;;;;5118787;28;20202;-56
2022/04/12 02:05:04;;;;;;;1.38;1.27;;;;;;;;;;5112129;28;20199;-56
2022/04/12 02:07:31;;;;;;;1.05;1.00;;;;;;;;;;5098126;28;20460;-56
2022/04/12 02:09:58;;;;;;;0.98;0.95;;;;;;;;;;5098544;28;20200;-56
2022/04/12 02:12:26;;;;;;;1.23;1.13;;;;;;;;;;5098348;28;20229;-56
2022/04/12 02:14:54;;;;;;;1.23;1.13;;;;;;;;;;5098181;28;20207;-56
2022/04/12 02:17:23;;;;;;;1.23;1.13;;;;;;;;;;5097767;28;20199;-56
2022/04/12 02:19:50;;;;;;;1.40;1.30;;;;;;;;;;5097928;28;21745;-56
2022/04/12 02:22:18;;;;;;;1.10;1.00;;;;;;;;;;5098228;28;20195;-56
2022/04/12 02:24:45;;;;;;;1.33;1.17;;;;;;;;;;5098036;28;20207;-56
2022/04/12 02:27:13;;;;;;;1.05;0.95;;;;;;;;;;5098491;28;20214;-56
2022/04/12 02:29:40;;;;;;;1.20;1.10;;;;;;;;;;5098281;28;20200;-55
2022/04/12 02:32:08;;;;;;;1.20;1.10;;;;;;;;;;5098055;28;20487;-56
2022/04/12 02:34:37;;;;;;;1.23;1.13;;;;;;;;;;5098207;28;20214;-56
2022/04/12 02:37:04;;;;;;;1.20;1.10;;;;;;;;;;5097592;28;20589;-56
2022/04/12 02:39:32;;;;;;;1.40;1.30;;;;;;;;;;5112007;28;20223;-56
2022/04/12 02:41:59;;;;;;;1.17;1.10;;;;;;;;;;5099639;28;20200;-55
2022/04/12 02:44:27;;;;;;;1.30;1.20;;;;;;;;;;5097920;28;20199;-56
2022/04/12 02:46:55;;;;;;;1.40;1.30;;;;;;;;;;5117525;28;20234;-56
2022/04/12 02:49:22;;;;;;;1.02;1.00;;;;;;;;;;5117357;28;20191;-56
2022/04/12 02:51:51;;;;;;;1.20;1.10;;;;;;;;;;5117440;28;20202;-57
2022/04/12 02:54:20;;;;;;;1.40;1.30;;;;;;;;;;5108972;28;20210;-57
2022/04/12 02:56:47;;;;;;;1.30;1.20;;;;;;;;;;5104603;28;20583;-56
2022/04/12 02:59:14;;;;;;;1.17;1.15;;;;;;;;;;5096775;28;20220;-56
2022/04/12 03:01:42;;;;;;;1.30;1.20;;;;;;;;;;5097071;28;20203;-56
2022/04/12 03:04:09;;;;;;;1.30;1.20;;;;;;;;;;5098014;28;20217;-56
2022/04/12 03:06:36;;;;;;;1.30;1.20;;;;;;;;;;5101699;28;20198;-55
2022/04/12 03:09:05;;;;;;;1.20;1.10;;;;;;;;;;5115469;28;20202;-56
2022/04/12 03:11:34;;;;;;;1.25;1.15;;;;;;;;;;5120415;28;20199;-55
2022/04/12 03:14:01;;;;;;;1.20;1.10;;;;;;;;;;5120888;28;20198;-56
2022/04/12 03:16:29;;;;;;;1.17;1.08;;;;;;;;;;5121953;28;20219;-55
2022/04/12 03:18:56;;;;;;;1.00;1.00;;;;;;;;;;5120776;28;20500;-55
2022/04/12 03:21:24;;;;;;;1.20;1.10;;;;;;;;;;5121356;28;20476;-56
2022/04/12 03:23:51;;;;;;;1.33;1.23;;;;;;;;;;5120669;28;20195;-56
2022/04/12 03:26:20;;;;;;;1.35;1.25;;;;;;;;;;5112240;28;20200;-56
2022/04/12 03:28:47;;;;;;;1.45;1.35;;;;;;;;;;5117438;28;20191;-56
2022/04/12 03:31:14;;;;;;;1.27;1.15;;;;;;;;;;5107041;28;20199;-56
2022/04/12 03:33:42;;;;;;;1.30;1.20;;;;;;;;;;5120698;28;20199;-56
2022/04/12 03:36:09;;;;;;;1.55;1.35;;;;;;;;;;5121649;28;20203;-55
2022/04/12 03:38:40;;;;;;;1.40;1.30;;;;;;;;;;5109267;28;20200;-56
2022/04/12 03:41:07;;;;;;;1.52;1.42;;;;;;;;;;5111088;28;20210;-56
2022/04/12 03:43:37;;;;;;;1.42;1.30;;;;;;;;;;5120096;27;20199;-56
2022/04/12 03:46:04;;;;;;;1.67;1.27;;;;;;;;;;5105445;28;20242;-56
2022/04/12 03:48:31;;;;;;;1.40;1.30;;;;;;;;;;5099591;28;20200;-55
2022/04/12 03:50:59;;;;;;;1.40;1.30;;;;;;;;;;5100076;28;20204;-55
2022/04/12 03:53:26;;;;;;;1.40;1.30;;;;;;;;;;5099850;28;20207;-56
2022/04/12 03:55:55;;;;;;;1.40;1.30;;;;;;;;;;5099705;28;20277;-57
2022/04/12 03:58:23;;;;;;;1.42;1.33;;;;;;;;;;5107144;28;20195;-56
2022/04/12 04:00:52;;;;;;;1.48;1.10;;;;;;;;;;5099356;28;20223;-56
2022/04/12 04:03:19;;;;;;;1.50;1.40;;;;;;;;;;5099615;28;20226;-56
2022/04/12 04:05:47;;;;;;;1.33;1.23;;;;;;;;;;5099068;28;20207;-56
2022/04/12 04:08:14;;;;;;;1.42;1.33;;;;;;;;;;5100011;28;20204;-56
2022/04/12 04:10:41;;;;;;;1.38;1.27;;;;;;;;;;5099621;28;20199;-56
2022/04/12 04:13:09;;;;;;;1.40;1.30;;;;;;;;;;5098600;28;20487;-56
2022/04/12 04:15:40;;;;;;;1.30;1.20;;;;;;;;;;5098004;28;20590;-56
2022/04/12 04:18:09;;;;;;;1.27;1.17;;;;;;;;;;5098739;28;20319;-56
2022/04/12 04:20:36;;;;;;;1.50;1.40;;;;;;;;;;5098397;28;20236;-56
2022/04/12 04:23:04;;;;;;;1.50;1.40;;;;;;;;;;5098627;28;20203;-56
2022/04/12 04:25:32;;;;;;;1.40;1.30;;;;;;;;;;5097948;28;20211;-56
2022/04/12 04:27:59;;;;;;;1.40;1.30;;;;;;;;;;5098145;28;20207;-56
2022/04/12 04:30:27;;;;;;;1.30;1.20;;;;;;;;;;5098173;28;20195;-55
2022/04/12 04:32:54;;;;;;;1.40;1.30;;;;;;;;;;5097704;28;20200;-56
2022/04/12 04:35:23;;;;;;;1.58;1.48;;;;;;;;;;5097125;28;20215;-56
2022/04/12 04:37:51;;;;;;;1.33;1.23;;;;;;;;;;5099705;28;20196;-56
2022/04/12 04:40:19;;;;;;;1.35;1.25;;;;;;;;;;5111236;28;20219;-56
2022/04/12 04:42:47;;;;;;;1.30;1.20;;;;;;;;;;5096913;28;20492;-56
2022/04/12 04:45:14;;;;;;;1.60;1.50;;;;;;;;;;5097171;28;20242;-56
2022/04/12 04:47:51;;;;;;;1.45;1.35;;;;;;;;;;5116886;28;20307;-56
2022/04/12 04:50:19;;;;;;;1.30;1.20;;;;;;;;;;5116710;28;20206;-56
2022/04/12 04:52:48;;;;;;;1.60;1.50;;;;;;;;;;5117187;28;20203;-56
2022/04/12 04:55:15;;;;;;;1.50;1.40;;;;;;;;;;5115944;28;20206;-55
2022/04/12 04:57:43;;;;;;;1.50;1.40;;;;;;;;;;5110506;28;20192;-56
2022/04/12 05:00:15;;;;;;;1.42;1.33;;;;;;;;;;5096050;28;20664;-56
2022/04/12 05:02:43;;;;;;;1.50;1.40;;;;;;;;;;5096463;28;20203;-56
2022/04/12 05:05:10;;;;;;;1.40;1.30;;;;;;;;;;5094785;28;20196;-55
2022/04/12 05:07:38;;;;;;;1.40;1.30;;;;;;;;;;5099076;28;20220;-56
2022/04/12 05:10:08;;;;;;;1.35;1.25;;;;;;;;;;5106968;28;20222;-55
2022/04/12 05:12:35;;;;;;;1.40;1.30;;;;;;;;;;5093954;28;20202;-56
2022/04/12 05:15:03;;;;;;;1.30;1.20;;;;;;;;;;5095092;28;20833;-56
2022/04/12 05:17:30;;;;;;;1.48;1.38;;;;;;;;;;5095016;28;20207;-55
2022/04/12 05:19:57;;;;;;;1.40;1.30;;;;;;;;;;5105341;28;20219;-56
2022/04/12 05:22:25;;;;;;;1.17;1.08;;;;;;;;;;5116603;28;20441;-56
2022/04/12 05:24:52;;;;;;;1.40;1.30;;;;;;;;;;5099667;28;20200;-56
2022/04/12 05:27:21;;;;;;;1.30;1.20;;;;;;;;;;5093868;28;20291;-55
2022/04/12 05:29:49;;;;;;;1.58;1.48;;;;;;;;;;5105956;28;20260;-56
2022/04/12 05:32:16;;;;;;;1.48;1.38;;;;;;;;;;5098861;28;20265;-56
2022/04/12 05:34:45;;;;;;;1.33;1.23;;;;;;;;;;5095135;28;20195;-56
2022/04/12 05:37:12;;;;;;;1.40;1.30;;;;;;;;;;5094242;28;20311;-56
2022/04/12 05:39:40;;;;;;;1.45;1.35;;;;;;;;;;5110900;28;20225;-56
2022/04/12 05:42:07;;;;;;;1.42;1.23;;;;;;;;;;5093592;28;20226;-56
2022/04/12 05:44:36;;;;;;;1.45;1.35;;;;;;;;;;5092792;28;20601;-55
2022/04/12 05:47:04;;;;;;;1.40;1.30;;;;;;;;;;5092388;28;20246;-56
2022/04/12 05:49:32;;;;;;;1.52;1.42;;;;;;;;;;5092980;28;20734;-56
2022/04/12 05:52:00;;;;;;;1.42;1.33;;;;;;;;;;5092813;28;20196;-56
2022/04/12 05:54:27;;;;;;;1.40;1.30;;;;;;;;;;5092973;28;20192;-55
2022/04/12 05:56:54;;;;;;;1.38;1.27;;;;;;;;;;5091850;28;20203;-56
2022/04/12 05:59:22;;;;;;;1.40;1.30;;;;;;;;;;5098755;28;20214;-56
2022/04/12 06:01:51;;;;;;;1.23;1.13;;;;;;;;;;5098985;28;20200;-56
2022/04/12 06:04:19;;;;;;;1.52;1.42;;;;;;;;;;5093441;28;20313;-56
2022/04/12 06:06:46;;;;;;;1.42;1.33;;;;;;;;;;5093722;28;20203;-56
2022/04/12 06:09:14;;;;;;;1.50;1.40;;;;;;;;;;5092480;28;20567;-56
2022/04/12 06:11:41;;;;;;;1.38;1.27;;;;;;;;;;5093163;28;20358;-56
2022/04/12 06:14:08;;;;;;;4.38;1.60;;;;;;;;;;5093353;28;20558;-56
2022/04/12 06:16:36;;;;;;;1.63;1.52;;;;;;;;;;5092994;28;20609;-58
2022/04/12 06:19:06;;;;;;;1.50;1.40;;;;;;;;;;5092997;28;20565;-58
2022/04/12 06:21:33;;;;;;;1.40;1.30;;;;;;;;;;5094361;28;20227;-55
2022/04/12 06:24:00;;;;;;;1.52;1.40;;;;;;;;;;5094124;28;20230;-57
2022/04/12 06:26:28;;;;;;;1.55;1.35;;;;;;;;;;5093229;28;20571;-58
2022/04/12 06:28:55;;;;;;;2.47;1.40;;;;;;;;;;5096245;28;20211;-58
2022/04/12 06:31:22;;;;;;;1.55;1.45;;;;;;;;;;5106289;28;20230;-58
2022/04/12 06:33:50;;;;;;;1.45;1.35;;;;;;;;;;5109977;28;20208;-55
2022/04/12 06:36:19;;;;;;;2.45;1.65;;;;;;;;;;5092484;28;20236;-56
2022/04/12 06:38:46;;;;;;;1.63;1.52;;;;;;;;;;5107030;28;20291;-55
2022/04/12 06:41:15;;;;;;;2.00;1.80;;;;;;;;;;5105084;28;20215;-55
2022/04/12 06:43:44;;;;;;;2.58;1.90;;;;;;;;;;5100260;28;20204;-55
2022/04/12 06:46:12;;;;;;;2.20;2.00;;;;;;;;;;5099301;28;20227;-55
2022/04/12 06:48:39;;;;;;;2.67;2.00;;;;;;;;;;5102651;28;20218;-56
2022/04/12 06:51:07;;;;;;;2.42;1.75;;;;;;;;;;5117935;28;20539;-57
2022/04/12 06:53:36;;;;;;;10.95;8.93;;;;;;;;;;5118719;28;20201;-57
2022/04/12 06:56:03;;;;;;;22.95;17.75;;;;;;;;;;5118364;28;20229;-56
2022/04/12 06:58:30;;;;;;;22.60;17.98;;;;;;;;;;5119688;28;20195;-58
2022/04/12 07:00:58;;;;;;;21.05;16.35;;;;;;;;;;5116882;28;20219;-57
2022/04/12 07:03:25;;;;;;;18.17;13.90;;;;;;;;;;5116157;28;20199;-56
2022/04/12 07:05:55;;;;;;;16.13;12.80;;;;;;;;;;5097375;28;20213;-57
2022/04/12 07:08:23;;;;;;;15.88;12.80;;;;;;;;;;5099324;28;20771;-56
2022/04/12 07:10:52;;;;;;;15.13;11.60;;;;;;;;;;5098700;28;20196;-57
2022/04/12 07:13:19;;;;;;;15.00;11.98;;;;;;;;;;5098483;28;20602;-56
2022/04/12 07:15:49;;;;;;;14.07;11.10;;;;;;;;;;5097112;28;20234;-56
2022/04/12 07:18:17;;;;;;;13.63;10.48;;;;;;;;;;5097961;28;20215;-56
2022/04/12 07:20:44;;;;;;;12.25;10.00;;;;;;;;;;5098331;28;20234;-57
2022/04/12 07:23:12;;;;;;;11.43;9.73;;;;;;;;;;5099109;28;20717;-56
2022/04/12 07:25:39;;;;;;;12.52;9.70;;;;;;;;;;5098838;28;20200;-57
2022/04/12 07:28:08;;;;;;;10.38;8.90;;;;;;;;;;5099279;28;20203;-56
2022/04/12 07:30:36;;;;;;;10.88;8.77;;;;;;;;;;5098960;28;20769;-56
2022/04/12 07:33:03;;;;;;;11.38;8.10;;;;;;;;;;5098873;28;20207;-56
2022/04/12 07:35:30;;;;;;;9.43;7.97;;;;;;;;;;5112419;28;20291;-56
2022/04/12 07:37:58;;;;;;;11.32;8.60;;;;;;;;;;5096585;28;20199;-56
2022/04/12 07:40:25;;;;;;;9.38;7.65;;;;;;;;;;5103357;28;20215;-56
2022/04/12 07:42:53;;;;;;;9.88;7.35;;;;;;;;;;5116943;28;20198;-56
2022/04/12 07:45:22;;;;;;;10.10;7.57;;;;;;;;;;5113104;28;20646;-56
2022/04/12 07:47:49;;;;;;;8.65;6.78;;;;;;;;;;5096984;28;20351;-56
2022/04/12 07:50:17;;;;;;;8.27;6.88;;;;;;;;;;5096888;28;20188;-56
2022/04/12 07:52:44;;;;;;;9.52;7.13;;;;;;;;;;5097067;28;20218;-56
2022/04/12 07:55:11;;;;;;;8.30;6.57;;;;;;;;;;5096079;28;20200;-56
2022/04/12 07:57:39;;;;;;;9.65;7.57;;;;;;;;;;5101461;28;20205;-56
2022/04/12 08:00:08;;;;;;;10.15;8.30;;;;;;;;;;5103907;28;20479;-56
2022/04/12 08:02:36;;;;;;;11.65;8.43;;;;;;;;;;5097920;28;20204;-56
2022/04/12 08:05:04;;;;;;;9.23;7.97;;;;;;;;;;5077291;28;20215;-56
2022/04/12 08:07:31;;;;;;;8.98;7.88;;;;;;;;;;5077617;28;20208;-56
2022/04/12 08:09:59;;;;;;;9.77;7.93;;;;;;;;;;5076264;28;20204;-56
2022/04/12 08:12:27;;;;;;;8.07;7.25;;;;;;;;;;5077612;28;20214;-56
2022/04/12 08:14:54;;;;;;;8.52;6.78;;;;;;;;;;5075598;28;20219;-56
2022/04/12 08:17:23;;;;;;;7.50;6.68;;;;;;;;;;5095476;28;20204;-56
2022/04/12 08:19:52;;;;;;;9.63;6.63;;;;;;;;;;5096425;28;20195;-56
2022/04/12 08:22:20;;;;;;;7.32;6.45;;;;;;;;;;5095805;28;20361;-56
2022/04/12 08:24:47;;;;;;;8.15;6.13;;;;;;;;;;5096223;28;20603;-57
2022/04/12 08:27:15;;;;;;;7.72;6.40;;;;;;;;;;5095488;28;20234;-56
2022/04/12 08:29:42;;;;;;;6.78;5.80;;;;;;;;;;5096220;28;20211;-56
2022/04/12 08:32:09;;;;;;;6.63;5.68;;;;;;;;;;5104189;28;20191;-56
2022/04/12 08:34:37;;;;;;;6.75;5.43;;;;;;;;;;5114155;28;20195;-57
2022/04/12 08:37:06;;;;;;;6.18;5.25;;;;;;;;;;5113406;28;20195;-56
2022/04/12 08:39:34;;;;;;;5.97;5.30;;;;;;;;;;5111009;28;20210;-56
2022/04/12 08:42:03;;;;;;;5.53;4.93;;;;;;;;;;5095743;28;20482;-56
2022/04/12 08:44:31;;;;;;;6.50;5.20;;;;;;;;;;5096151;28;20609;-56
2022/04/12 08:46:59;;;;;;;5.78;4.78;;;;;;;;;;5095785;28;20231;-56
2022/04/12 08:49:26;;;;;;;5.38;4.65;;;;;;;;;;5110596;28;20195;-56
2022/04/12 08:51:54;;;;;;;6.72;4.57;;;;;;;;;;5115519;28;20199;-56
2022/04/12 08:54:23;;;;;;;4.88;4.43;;;;;;;;;;5115759;28;20199;-56
2022/04/12 08:56:52;;;;;;;4.72;4.30;;;;;;;;;;5114851;28;20207;-56
2022/04/12 08:59:20;;;;;;;4.97;4.07;;;;;;;;;;5101280;28;20235;-57
2022/04/12 09:01:47;;;;;;;4.93;4.28;;;;;;;;;;5093904;28;20255;-56
2022/04/12 09:04:15;;;;;;;4.47;4.00;;;;;;;;;;5108080;28;20238;-56
2022/04/12 09:06:49;;;;;;;4.53;3.92;;;;;;;;;;5114823;28;20203;-56
2022/04/12 09:09:17;;;;;;;4.15;3.75;;;;;;;;;;5097377;28;20605;-56
2022/04/12 09:11:56;;;;;;;4.43;3.40;;;;;;;;;;5114973;28;20245;-56
2022/04/12 09:14:23;;;;;;;4.30;3.50;;;;;;;;;;5114404;28;20199;-56
2022/04/12 09:16:52;;;;;;;3.58;3.22;;;;;;;;;;5114576;28;20261;-56
2022/04/12 09:19:38;;;;;;;3.67;3.10;;;;;;;;;;5115721;28;20651;-56
2022/04/12 09:22:10;;;;;;;3.28;2.97;;;;;;;;;;5095143;28;20231;-56
2022/04/12 09:24:38;;;;;;;4.38;3.45;;;;;;;;;;5094929;28;20204;-57
2022/04/12 09:27:12;;;;;;;3.35;3.05;;;;;;;;;;5093921;28;20204;-56
2022/04/12 09:29:44;;;;;;;3.60;3.00;;;;;;;;;;5094391;28;20549;-56
2022/04/12 09:32:14;;;;;;;3.53;3.03;;;;;;;;;;5095247;28;20199;-57
2022/04/12 09:34:42;;;;;;;3.08;2.78;;;;;;;;;;5099737;28;20298;-56
2022/04/12 09:37:22;;;;;;;3.20;2.90;;;;;;;;;;5108546;28;20199;-56
2022/04/12 09:40:04;;;;;;;3.40;2.50;;;;;;;;;;5078839;28;20591;-57
2022/04/12 09:42:47;;;;;;;3.45;2.33;;;;;;;;;;5081515;28;20652;-56
2022/04/12 09:45:16;;;;;;;2.83;2.38;;;;;;;;;;5092471;28;20334;-57
2022/04/12 09:47:46;;;;;;;2.50;2.30;;;;;;;;;;5092792;28;20563;-57
2022/04/12 09:50:13;;;;;;;2.72;2.50;;;;;;;;;;5113878;28;20280;-57
2022/04/12 09:52:41;;;;;;;2.67;2.20;;;;;;;;;;5112212;28;20195;-58
2022/04/12 09:55:09;;;;;;;2.85;2.30;;;;;;;;;;5112145;28;20628;-57
2022/04/12 09:57:40;;;;;;;3.38;2.30;;;;;;;;;;5113229;28;20203;-57
2022/04/12 10:00:10;;;;;;;2.45;2.10;;;;;;;;;;5097430;28;20655;-57
2022/04/12 10:02:37;;;;;;;2.33;2.13;;;;;;;;;;5092583;28;20238;-56
2022/04/12 10:05:08;;;;;;;2.45;2.25;;;;;;;;;;5092636;28;20801;-57
2022/04/12 10:07:35;;;;;;;2.30;2.10;;;;;;;;;;5093803;28;20215;-57
2022/04/12 10:10:05;;;;;;;2.05;1.80;;;;;;;;;;5093882;28;20196;-57
2022/04/12 10:12:33;;;;;;;2.35;2.15;;;;;;;;;;5091562;28;20392;-57
2022/04/12 10:15:00;;;;;;;2.50;2.30;;;;;;;;;;5092509;28;20218;-57
2022/04/12 10:17:29;;;;;;;2.30;2.08;;;;;;;;;;5091217;28;20266;-56
2022/04/12 10:19:57;;;;;;;2.05;1.85;;;;;;;;;;5096666;28;20577;-58
2022/04/12 10:22:26;;;;;;;3.08;1.92;;;;;;;;;;5092431;28;20226;-57
2022/04/12 10:24:54;;;;;;;2.17;1.98;;;;;;;;;;5107231;28;20294;-57
2022/04/12 10:27:24;;;;;;;2.38;1.90;;;;;;;;;;5093093;28;20572;-57
2022/04/12 10:30:21;;;;;;;2.67;2.15;;;;;;;;;;5092920;28;20445;-57
2022/04/12 10:33:00;;;;;;;2.25;2.05;;;;;;;;;;5048926;28;20227;-57
2022/04/12 10:35:28;;;;;;;2.55;2.35;;;;;;;;;;5084395;28;20238;-57
2022/04/12 10:37:56;;;;;;;3.03;2.72;;;;;;;;;;5090539;28;20203;-57
2022/04/12 10:40:25;;;;;;;3.40;3.10;;;;;;;;;;5094847;28;20257;-57
2022/04/12 10:42:52;;;;;;;4.47;3.70;;;;;;;;;;5099592;28;20370;-57
2022/04/12 10:45:28;;;;;;;4.50;4.10;;;;;;;;;;5112832;28;20344;-57
2022/04/12 10:47:58;;;;;;;4.70;4.20;;;;;;;;;;5105675;28;20208;-58
2022/04/12 10:50:27;;;;;;;5.30;4.78;;;;;;;;;;5092151;28;20203;-57
2022/04/12 10:52:55;;;;;;;5.65;4.90;;;;;;;;;;5091233;28;20195;-56
2022/04/12 10:55:23;;;;;;;7.03;4.72;;;;;;;;;;5091896;28;20218;-57
2022/04/12 10:57:52;;;;;;;5.25;4.70;;;;;;;;;;5111122;28;20286;-57
2022/04/12 11:00:20;;;;;;;5.18;4.68;;;;;;;;;;5111855;28;20203;-57
2022/04/12 11:02:48;;;;;;;5.85;4.53;;;;;;;;;;5110267;28;20552;-56
2022/04/12 11:05:34;;;;;;;5.80;4.85;;;;;;;;;;5091854;28;20210;-57
2022/04/12 11:08:06;;;;;;;5.32;4.82;;;;;;;;;;5098533;28;20191;-56
2022/04/12 11:10:34;;;;;;;5.57;4.70;;;;;;;;;;5109979;28;20222;-57
2022/04/12 11:13:05;;;;;;;5.35;4.82;;;;;;;;;;5110773;28;20482;-56
2022/04/12 11:15:35;;;;;;;4.70;4.18;;;;;;;;;;5101792;28;20259;-56
2022/04/12 11:18:07;;;;;;;5.15;4.40;;;;;;;;;;5111769;28;20263;-56
2022/04/12 11:20:35;;;;;;;5.75;4.60;;;;;;;;;;5094526;28;20579;-56
2022/04/12 11:23:08;;;;;;;5.07;4.30;;;;;;;;;;5095287;28;20318;-56
2022/04/12 11:25:37;;;;;;;5.25;4.47;;;;;;;;;;5113034;28;20589;-56
2022/04/12 11:28:05;;;;;;;4.78;4.30;;;;;;;;;;5115323;28;20552;-57
2022/04/12 11:30:32;;;;;;;7.15;4.40;;;;;;;;;;5097493;28;20200;-56
2022/04/12 11:33:01;;;;;;;4.70;3.95;;;;;;;;;;5097185;28;20504;-56
2022/04/12 11:35:28;;;;;;;7.35;4.50;;;;;;;;;;5114891;28;20203;-57
2022/04/12 11:37:56;;;;;;;5.03;3.60;;;;;;;;;;5106138;28;20204;-56
2022/04/12 11:40:27;;;;;;;4.80;3.85;;;;;;;;;;5104449;28;20463;-56
2022/04/12 11:42:57;;;;;;;4.68;3.58;;;;;;;;;;5110594;28;20230;-56
2022/04/12 11:45:32;;;;;;;6.10;3.20;;;;;;;;;;5095055;28;20310;-56
2022/04/12 11:47:59;;;;;;;3.88;3.47;;;;;;;;;;5080668;28;20210;-56
2022/04/12 11:50:28;;;;;;;4.93;3.17;;;;;;;;;;5114641;28;20195;-56
2022/04/12 11:52:55;;;;;;;4.95;3.40;;;;;;;;;;5114081;28;20192;-56
2022/04/12 11:55:25;;;;;;;4.00;3.10;;;;;;;;;;5114750;28;20195;-56
2022/04/12 11:57:54;;;;;;;3.63;2.95;;;;;;;;;;5112548;28;20579;-57
2022/04/12 12:00:25;;;;;;;3.90;3.50;;;;;;;;;;5096490;28;20195;-57
2022/04/12 12:02:52;;;;;;;4.15;3.17;;;;;;;;;;5093741;28;20227;-56
2022/04/12 12:05:21;;;;;;;4.30;3.22;;;;;;;;;;5094160;28;20211;-56
2022/04/12 12:07:48;;;;;;;4.57;3.28;;;;;;;;;;5092948;28;20392;-57
2022/04/12 12:10:16;;;;;;;3.90;2.72;;;;;;;;;;5091790;28;20598;-56
2022/04/12 12:12:45;;;;;;;3.08;2.75;;;;;;;;;;5091970;28;20199;-56
2022/04/12 12:15:19;;;;;;;3.38;2.72;;;;;;;;;;5093498;28;20249;-57
2022/04/12 12:17:50;;;;;;;2.92;2.53;;;;;;;;;;5092506;28;20202;-57
2022/04/12 12:20:21;;;;;;;2.78;2.53;;;;;;;;;;5075215;28;20687;-57
2022/04/12 12:22:52;;;;;;;3.10;2.50;;;;;;;;;;5074300;28;20631;-57
2022/04/12 12:25:20;;;;;;;2.80;2.60;;;;;;;;;;5072984;28;20205;-57
2022/04/12 12:27:50;;;;;;;2.60;2.40;;;;;;;;;;5072991;28;20204;-57
2022/04/12 12:30:20;;;;;;;3.45;2.40;;;;;;;;;;5073731;28;20208;-57
2022/04/12 12:32:51;;;;;;;2.67;2.28;;;;;;;;;;5093809;28;20202;-56
2022/04/12 12:35:19;;;;;;;2.28;2.00;;;;;;;;;;5113935;28;20268;-58
2022/04/12 12:37:47;;;;;;;2.92;2.20;;;;;;;;;;5108690;28;20191;-56
2022/04/12 12:40:18;;;;;;;3.13;2.15;;;;;;;;;;5105358;28;20194;-57
2022/04/12 12:42:46;;;;;;;2.40;2.15;;;;;;;;;;5112339;28;20222;-56
2022/04/12 12:45:13;;;;;;;2.17;1.92;;;;;;;;;;5112210;28;20462;-57
2022/04/12 12:47:43;;;;;;;2.22;2.03;;;;;;;;;;5095946;28;20191;-57
2022/04/12 12:50:11;;;;;;;2.35;2.05;;;;;;;;;;5111640;28;20590;-56
2022/04/12 12:52:39;;;;;;;2.88;2.17;;;;;;;;;;5112964;28;20631;-57
2022/04/12 12:55:09;;;;;;;3.55;1.90;;;;;;;;;;5112770;28;20213;-56
2022/04/12 12:57:37;;;;;;;2.08;1.85;;;;;;;;;;5112545;28;20426;-56
2022/04/12 13:00:05;;;;;;;1.80;1.50;;;;;;;;;;5093776;28;20195;-56
2022/04/12 13:02:35;;;;;;;2.00;1.80;;;;;;;;;;5091217;28;20230;-57
2022/04/12 13:05:05;;;;;;;1.85;1.60;;;;;;;;;;5090095;28;20303;-56
2022/04/12 13:07:34;;;;;;;2.38;1.67;;;;;;;;;;5093243;28;20196;-57
2022/04/12 13:10:12;;;;;;;1.98;1.70;;;;;;;;;;5112504;28;20206;-57
2022/04/12 13:12:40;;;;;;;1.92;1.70;;;;;;;;;;5112322;28;20463;-57
2022/04/12 13:15:08;;;;;;;1.65;1.55;;;;;;;;;;5111667;28;20295;-57
2022/04/12 13:17:35;;;;;;;1.65;1.30;;;;;;;;;;5112094;28;20233;-56
2022/04/12 13:20:03;;;;;;;1.92;1.77;;;;;;;;;;5109713;28;20208;-57
2022/04/12 13:22:32;;;;;;;1.63;1.52;;;;;;;;;;5092142;28;20505;-57
2022/04/12 13:25:00;;;;;;;1.60;1.45;;;;;;;;;;5108369;28;20199;-57
2022/04/12 13:27:29;;;;;;;3.03;1.80;;;;;;;;;;5111324;28;20201;-57
2022/04/12 13:29:57;;;;;;;1.70;1.48;;;;;;;;;;5098908;28;20212;-57
2022/04/12 13:32:24;;;;;;;1.50;1.40;;;;;;;;;;5091408;28;20223;-56
2022/04/12 13:34:52;;;;;;;1.40;1.30;;;;;;;;;;5106988;28;20426;-57
2022/04/12 13:37:20;;;;;;;1.88;1.38;;;;;;;;;;5108193;27;20191;-56
2022/04/12 13:39:51;;;;;;;1.98;1.50;;;;;;;;;;5107976;28;20317;-57
2022/04/12 13:42:18;;;;;;;1.38;1.20;;;;;;;;;;5111078;28;20262;-57
2022/04/12 13:44:47;;;;;;;1.50;1.25;;;;;;;;;;5094977;28;20587;-57
2022/04/12 13:47:14;;;;;;;1.35;1.25;;;;;;;;;;5098913;28;20449;-57
2022/04/12 13:49:42;;;;;;;1.58;1.30;;;;;;;;;;5096395;28;20196;-57
2022/04/12 13:52:12;;;;;;;1.38;1.27;;;;;;;;;;5106979;28;20203;-57
2022/04/12 13:54:39;;;;;;;1.30;1.20;;;;;;;;;;5110584;28;20460;-57
2022/04/12 13:57:08;;;;;;;1.83;1.10;;;;;;;;;;5111405;28;20246;-57
2022/04/12 13:59:36;;;;;;;1.40;1.25;;;;;;;;;;5102772;28;20459;-57
2022/04/12 14:02:04;;;;;;;1.38;1.20;;;;;;;;;;5089149;28;20230;-57
2022/04/12 14:04:31;;;;;;;1.40;1.10;;;;;;;;;;5091040;28;20203;-57
2022/04/12 14:06:58;;;;;;;1.42;1.13;;;;;;;;;;5091026;28;20195;-57
2022/04/12 14:09:26;;;;;;;1.23;1.13;;;;;;;;;;5091054;28;20200;-57
2022/04/12 14:11:53;;;;;;;1.42;1.25;;;;;;;;;;5091943;28;20195;-57
2022/04/12 14:14:22;;;;;;;1.30;1.20;;;;;;;;;;5091970;28;20203;-56
2022/04/12 14:16:50;;;;;;;1.75;1.38;;;;;;;;;;5090546;28;20467;-57
2022/04/12 14:19:20;;;;;;;1.10;1.00;;;;;;;;;;5091041;28;20210;-57
2022/04/12 14:21:48;;;;;;;1.10;0.90;;;;;;;;;;5091061;28;20203;-57
2022/04/12 14:24:16;;;;;;;1.30;1.10;;;;;;;;;;5091318;28;20208;-57
2022/04/12 14:26:43;;;;;;;1.15;0.90;;;;;;;;;;5090645;28;20203;-57
2022/04/12 14:29:11;;;;;;;1.00;0.90;;;;;;;;;;5091631;28;20195;-57
2022/04/12 14:31:42;;;;;;;1.02;0.98;;;;;;;;;;5089631;28;20203;-57
2022/04/12 14:34:11;;;;;;;1.50;1.10;;;;;;;;;;5089036;28;20191;-57
2022/04/12 14:36:40;;;;;;;1.55;1.45;;;;;;;;;;5109246;28;20447;-57
2022/04/12 14:39:09;;;;;;;1.10;1.00;;;;;;;;;;5100012;28;20208;-57
2022/04/12 14:41:40;;;;;;;1.10;1.00;;;;;;;;;;5108720;28;20199;-57
2022/04/12 14:44:08;;;;;;;1.33;1.00;;;;;;;;;;5113100;28;20218;-57
2022/04/12 14:46:35;;;;;;;1.00;0.90;;;;;;;;;;5112958;28;20242;-57
2022/04/12 14:49:05;;;;;;;1.30;1.08;;;;;;;;;;5109322;28;20589;-57
2022/04/12 14:51:32;;;;;;;1.23;1.00;;;;;;;;;;5111056;28;20271;-57